Time;durP1;ratioP1;P1;durP2;ratioP2;P2;SDS_P1;SDS_P2;PMS_P1;PMS_P2;Temp;Humidity;BMP_temperature;BMP_pressure;BME280_temperature;BME280_humidity;BME280_pressure;Samples;Min_cycle;Max_cycle;Signal;HPM_P1;HPM_P2
2023/05/17 00:00:12;;;;;;;6.40;3.42;;;;;;;16.25;54.70;100329.67;1645142;87;21078;-70
2023/05/17 00:02:41;;;;;;;6.40;3.62;;;;;;;16.26;54.74;100332.77;1645311;87;21993;-70
2023/05/17 00:05:10;;;;;;;5.72;3.45;;;;;;;16.25;54.86;100339.34;1645740;87;21104;-71
2023/05/17 00:07:39;;;;;;;7.50;3.92;;;;;;;16.23;55.00;100337.36;1647763;86;21021;-70
2023/05/17 00:10:09;;;;;;;6.90;3.70;;;;;;;16.18;55.25;100338.91;1677785;85;21134;-70
2023/05/17 00:12:39;;;;;;;5.60;3.70;;;;;;;16.13;55.48;100339.31;1684766;85;21075;-71
2023/05/17 00:15:09;;;;;;;5.97;3.60;;;;;;;16.08;55.71;100338.64;1647425;86;21036;-71
2023/05/17 00:17:38;;;;;;;4.95;3.60;;;;;;;16.08;55.81;100337.26;1648412;86;21020;-70
2023/05/17 00:20:08;;;;;;;5.15;3.40;;;;;;;16.10;55.90;100339.24;1677724;85;21023;-70
2023/05/17 00:22:39;;;;;;;6.70;3.47;;;;;;;16.10;55.93;100342.01;1647245;87;21057;-70
2023/05/17 00:25:10;;;;;;;6.83;3.85;;;;;;;16.11;56.03;100347.84;1647218;86;21013;-70
2023/05/17 00:27:39;;;;;;;6.55;3.62;;;;;;;16.09;56.15;100350.53;1648505;86;21433;-70
2023/05/17 00:30:08;;;;;;;6.97;3.75;;;;;;;16.08;56.22;100348.85;1647472;86;21045;-70
2023/05/17 00:32:38;;;;;;;12.98;3.98;;;;;;;16.08;56.33;100350.23;1647051;87;21000;-70
2023/05/17 00:35:07;;;;;;;5.78;3.60;;;;;;;16.07;56.42;100348.55;1677675;85;21044;-70
2023/05/17 00:37:36;;;;;;;4.75;3.55;;;;;;;16.06;56.52;100353.23;1684971;85;21083;-70
2023/05/17 00:40:07;;;;;;;5.58;3.35;;;;;;;16.08;56.56;100364.05;1647198;86;21503;-69
2023/05/17 00:42:36;;;;;;;7.00;3.92;;;;;;;16.10;56.63;100362.73;1626681;87;21180;-70
2023/05/17 00:45:07;;;;;;;6.15;3.47;;;;;;;16.08;56.71;100355.22;1678030;85;21080;-70
2023/05/17 00:47:36;;;;;;;6.50;3.52;;;;;;;16.07;56.82;100353.53;1647079;87;21437;-70
2023/05/17 00:50:06;;;;;;;5.30;3.45;;;;;;;16.06;56.92;100352.39;1647435;86;21025;-70
2023/05/17 00:52:35;;;;;;;5.83;3.85;;;;;;;16.05;56.97;100352.92;1678102;85;21008;-70
2023/05/17 00:55:04;;;;;;;8.65;3.30;;;;;;;16.04;57.08;100352.63;1684777;85;21091;-72
2023/05/17 00:57:34;;;;;;;6.62;3.35;;;;;;;16.05;57.23;100354.84;1647251;86;21065;-70
2023/05/17 01:00:05;;;;;;;5.40;3.47;;;;;;;16.01;57.33;100360.00;1647120;86;21076;-70
2023/05/17 01:02:34;;;;;;;6.17;3.87;;;;;;;16.00;57.47;100360.23;1678083;84;21091;-70
2023/05/17 01:05:05;;;;;;;5.62;3.50;;;;;;;15.98;57.56;100358.25;1646720;86;21068;-70
2023/05/17 01:07:37;;;;;;;7.05;3.52;;;;;;;15.95;57.65;100358.17;1645152;87;21495;-71
2023/05/17 01:10:08;;;;;;;7.50;3.50;;;;;;;15.93;57.78;100356.19;1645375;87;21465;-70
2023/05/17 01:12:57;;;;;;;5.95;3.52;;;;;;;15.95;57.89;100357.33;1645117;87;20993;-70
2023/05/17 01:15:32;;;;;;;4.90;3.45;;;;;;;15.96;57.95;100364.01;1645003;87;21411;-70
2023/05/17 01:18:21;;;;;;;6.03;3.90;;;;;;;15.97;58.02;100357.41;1645478;87;21028;-70
2023/05/17 01:20:51;;;;;;;9.10;3.50;;;;;;;15.97;58.09;100355.18;1645214;87;21438;-71
2023/05/17 01:23:37;;;;;;;6.22;3.55;;;;;;;15.94;58.27;100350.96;1645127;87;21013;-71
2023/05/17 01:26:21;;;;;;;8.15;3.92;;;;;;;15.96;58.54;100356.26;1645062;87;21088;-71
2023/05/17 01:28:53;;;;;;;7.28;3.75;;;;;;;15.94;58.58;100350.96;1645043;87;21484;-71
2023/05/17 01:31:22;;;;;;;11.68;3.92;;;;;;;15.94;58.72;100352.88;1645278;87;21057;-71
2023/05/17 01:33:51;;;;;;;7.03;3.80;;;;;;;15.90;58.89;100350.28;1645183;86;21091;-70
2023/05/17 01:36:20;;;;;;;7.25;3.52;;;;;;;15.87;58.98;100353.52;1645242;86;21021;-71
2023/05/17 01:38:49;;;;;;;6.33;3.58;;;;;;;15.86;59.06;100352.67;1645224;86;21078;-70
2023/05/17 01:41:39;;;;;;;7.65;4.20;;;;;;;15.87;59.18;100351.59;1645373;87;21057;-70
2023/05/17 01:44:30;;;;;;;13.70;4.30;;;;;;;15.88;59.25;100349.67;1645308;87;21004;-70
2023/05/17 01:47:08;;;;;;;5.33;3.50;;;;;;;15.87;59.31;100350.75;1645368;87;21032;-70
2023/05/17 01:49:37;;;;;;;7.08;3.70;;;;;;;15.85;59.48;100357.35;1645278;87;21005;-72
2023/05/17 01:52:30;;;;;;;5.03;3.60;;;;;;;15.83;59.61;100354.52;1645237;87;21017;-71
2023/05/17 01:55:07;;;;;;;6.28;3.98;;;;;;;15.83;59.63;100352.60;1633663;87;21073;-70
2023/05/17 01:57:36;;;;;;;6.15;3.98;;;;;;;15.83;59.68;100353.98;1645126;86;21028;-70
2023/05/17 02:00:11;;;;;;;7.83;3.92;;;;;;;15.84;59.70;100352.06;1645098;87;21498;-71
2023/05/17 02:02:44;;;;;;;10.63;4.10;;;;;;;15.84;59.79;100354.83;1645321;87;21048;-71
2023/05/17 02:05:13;;;;;;;12.70;4.47;;;;;;;15.82;59.88;100354.22;1645006;87;21118;-72
2023/05/17 02:07:42;;;;;;;7.58;3.95;;;;;;;15.75;60.13;100351.54;1645082;87;21121;-71
2023/05/17 02:10:12;;;;;;;6.45;4.00;;;;;;;15.70;60.34;100351.94;1645337;87;20993;-73
2023/05/17 02:12:44;;;;;;;7.05;4.22;;;;;;;15.69;60.42;100356.61;1645371;86;21092;-70
2023/05/17 02:15:15;;;;;;;5.30;3.77;;;;;;;15.68;60.56;100363.22;1645330;86;21485;-71
2023/05/17 02:17:44;;;;;;;6.20;4.10;;;;;;;15.65;60.67;100360.92;1645315;87;21084;-71
2023/05/17 02:20:15;;;;;;;7.58;4.40;;;;;;;15.62;60.79;100356.39;1645154;87;21159;-71
2023/05/17 02:22:45;;;;;;;8.35;4.00;;;;;;;15.57;61.03;100362.55;1624420;87;21072;-71
2023/05/17 02:25:13;;;;;;;7.05;4.47;;;;;;;15.55;61.25;100363.32;1645162;87;21065;-70
2023/05/17 02:27:42;;;;;;;9.65;4.40;;;;;;;15.55;61.48;100360.02;1645138;86;21061;-71
2023/05/17 02:30:15;;;;;;;10.78;4.35;;;;;;;15.58;61.62;100362.05;1645473;86;21449;-69
2023/05/17 02:32:47;;;;;;;6.00;4.00;;;;;;;15.59;61.79;100373.40;1645336;86;21453;-71
2023/05/17 02:35:18;;;;;;;7.47;3.55;;;;;;;15.62;61.92;100370.20;1645121;87;21199;-70
2023/05/17 02:37:48;;;;;;;6.42;3.83;;;;;;;15.60;61.99;100369.56;1644813;87;21021;-71
2023/05/17 02:40:17;;;;;;;7.50;3.72;;;;;;;15.59;62.15;100370.64;1645101;86;21041;-71
2023/05/17 02:42:47;;;;;;;7.12;3.90;;;;;;;15.60;62.34;100373.17;1645389;87;21069;-69
2023/05/17 02:45:16;;;;;;;5.85;3.90;;;;;;;15.61;62.42;100380.41;1645204;87;21122;-70
2023/05/17 02:47:47;;;;;;;7.00;3.87;;;;;;;15.63;62.36;100383.78;1645296;87;21085;-70
2023/05/17 02:50:16;;;;;;;8.78;3.70;;;;;;;15.65;62.19;100383.02;1645123;87;20993;-69
2023/05/17 02:52:45;;;;;;;6.42;4.10;;;;;;;15.70;61.92;100381.78;1645193;86;21064;-70
2023/05/17 02:55:14;;;;;;;10.95;3.90;;;;;;;15.75;61.40;100384.70;1645182;87;21453;-69
2023/05/17 02:57:42;;;;;;;6.30;3.60;;;;;;;15.81;61.18;100384.30;1645115;87;21014;-68
2023/05/17 03:00:13;;;;;;;6.67;3.70;;;;;;;15.84;61.07;100386.06;1645063;87;21049;-70
2023/05/17 03:02:43;;;;;;;7.80;3.80;;;;;;;15.87;61.01;100387.52;1645182;87;21088;-71
2023/05/17 03:05:12;;;;;;;6.00;3.80;;;;;;;15.90;60.95;100386.20;1645381;87;21021;-69
2023/05/17 03:07:43;;;;;;;7.37;3.90;;;;;;;15.93;60.88;100381.06;1645320;86;21021;-70
2023/05/17 03:10:12;;;;;;;8.15;4.10;;;;;;;15.93;60.91;100392.65;1645113;87;20985;-70
2023/05/17 03:12:43;;;;;;;6.25;3.60;;;;;;;15.92;60.94;100391.80;1644968;87;21152;-70
2023/05/17 03:15:13;;;;;;;9.93;4.35;;;;;;;15.93;60.93;100385.73;1645442;87;21021;-72
2023/05/17 03:17:42;;;;;;;6.50;3.45;;;;;;;15.94;60.94;100392.41;1645097;86;21024;-71
2023/05/17 03:20:11;;;;;;;9.73;4.12;;;;;;;15.96;60.94;100381.97;1645371;87;20989;-71
2023/05/17 03:22:40;;;;;;;9.33;3.92;;;;;;;15.99;60.75;100387.03;1645048;87;21009;-71
2023/05/17 03:25:10;;;;;;;7.50;3.80;;;;;;;16.03;60.69;100386.87;1645264;86;21025;-70
2023/05/17 03:27:39;;;;;;;7.08;3.67;;;;;;;16.04;60.55;100388.55;1645344;86;21416;-70
2023/05/17 03:30:10;;;;;;;5.97;3.30;;;;;;;16.05;60.28;100386.09;1645092;87;20989;-70
2023/05/17 03:32:40;;;;;;;6.92;3.50;;;;;;;16.10;59.95;100399.21;1645281;87;21123;-68
2023/05/17 03:35:11;;;;;;;9.68;3.55;;;;;;;16.15;59.67;100397.44;1645124;87;21041;-69
2023/05/17 03:37:41;;;;;;;4.50;3.62;;;;;;;16.22;59.41;100405.63;1645319;86;21402;-70
2023/05/17 03:40:11;;;;;;;6.40;4.00;;;;;;;16.28;59.00;100409.41;1645311;86;21029;-70
2023/05/17 03:42:40;;;;;;;11.40;3.37;;;;;;;16.33;58.61;100410.93;1624389;87;21469;-71
2023/05/17 03:45:10;;;;;;;6.92;3.20;;;;;;;16.37;58.30;100413.53;1645138;86;21017;-70
2023/05/17 03:47:39;;;;;;;8.30;3.27;;;;;;;16.40;58.05;100409.75;1645278;87;21048;-71
2023/05/17 03:50:09;;;;;;;6.85;3.35;;;;;;;16.43;57.99;100416.20;1645232;86;21024;-70
2023/05/17 03:52:40;;;;;;;5.17;3.60;;;;;;;16.46;57.90;100424.02;1645314;86;21033;-70
2023/05/17 03:55:10;;;;;;;4.70;3.50;;;;;;;16.51;57.68;100421.93;1645209;87;21055;-70
2023/05/17 03:57:39;;;;;;;6.28;3.45;;;;;;;16.54;57.65;100422.00;1644987;87;21005;-70
2023/05/17 04:00:10;;;;;;;8.45;4.60;;;;;;;16.58;57.62;100416.30;1645185;87;21029;-70
2023/05/17 04:02:42;;;;;;;8.45;3.90;;;;;;;16.64;57.60;100419.50;1645031;87;21012;-72
2023/05/17 04:05:12;;;;;;;6.42;3.85;;;;;;;16.65;57.58;100424.83;1645352;86;21021;-71
2023/05/17 04:07:43;;;;;;;9.98;3.58;;;;;;;16.69;57.45;100431.57;1654846;87;21055;-70
2023/05/17 04:10:15;;;;;;;9.53;4.25;;;;;;;16.72;57.44;100426.95;1656267;87;21020;-71
2023/05/17 04:12:45;;;;;;;6.05;3.55;;;;;;;16.74;57.52;100434.47;1656427;87;21063;-69
2023/05/17 04:15:16;;;;;;;6.62;3.70;;;;;;;16.78;57.37;100437.06;1656171;87;21020;-71
2023/05/17 04:17:45;;;;;;;9.25;3.72;;;;;;;16.82;57.29;100435.20;1635421;87;21032;-71
2023/05/17 04:20:15;;;;;;;7.30;3.58;;;;;;;16.83;57.24;100439.12;1656180;87;21040;-69
2023/05/17 04:22:45;;;;;;;8.60;3.92;;;;;;;16.87;57.37;100443.64;1656222;87;21024;-70
2023/05/17 04:25:13;;;;;;;6.30;3.65;;;;;;;16.87;57.45;100450.02;1656264;87;21041;-70
2023/05/17 04:27:42;;;;;;;7.87;3.75;;;;;;;16.92;57.51;100449.33;1656250;87;21036;-70
2023/05/17 04:30:12;;;;;;;8.15;3.90;;;;;;;16.94;57.61;100449.39;1656272;87;21032;-72
2023/05/17 04:32:42;;;;;;;9.75;3.95;;;;;;;16.96;57.61;100449.16;1656447;87;21056;-70
2023/05/17 04:35:11;;;;;;;8.50;4.12;;;;;;;17.00;57.64;100453.98;1656366;87;21080;-70
2023/05/17 04:37:42;;;;;;;6.17;3.90;;;;;;;17.04;57.66;100451.58;1656504;87;21576;-70
2023/05/17 04:40:13;;;;;;;6.75;3.67;;;;;;;17.07;57.45;100457.48;1654567;85;21096;-70
2023/05/17 04:42:43;;;;;;;8.33;4.15;;;;;;;17.09;57.39;100462.77;1656387;87;21060;-71
2023/05/17 04:45:15;;;;;;;11.60;7.42;;;;;;;17.12;57.37;100465.06;1656196;87;21052;-69
2023/05/17 04:47:46;;;;;;;8.50;4.70;;;;;;;17.15;57.36;100464.59;1656271;87;21009;-69
2023/05/17 04:50:15;;;;;;;7.00;4.33;;;;;;;17.18;57.27;100470.19;1656291;87;21425;-70
2023/05/17 04:52:45;;;;;;;7.97;4.17;;;;;;;17.19;57.25;100468.56;1656179;87;21044;-68
2023/05/17 04:55:14;;;;;;;10.23;4.50;;;;;;;17.21;57.18;100473.32;1657870;86;21099;-70
2023/05/17 04:57:44;;;;;;;8.85;4.17;;;;;;;17.24;57.14;100470.07;1656503;87;21080;-70
2023/05/17 05:00:17;;;;;;;7.55;4.22;;;;;;;17.25;57.24;100467.61;1656303;87;21064;-70
2023/05/17 05:02:48;;;;;;;7.10;4.50;;;;;;;17.31;57.22;100476.34;1656079;86;21052;-71
2023/05/17 05:05:18;;;;;;;8.23;4.67;;;;;;;17.34;57.19;100481.94;1635704;86;21100;-70
2023/05/17 05:07:48;;;;;;;15.58;4.90;;;;;;;17.35;57.06;100471.16;1647731;87;21104;-71
2023/05/17 05:10:18;;;;;;;13.35;6.35;;;;;;;17.37;57.01;100480.07;1645322;87;21029;-70
2023/05/17 05:12:48;;;;;;;11.60;5.47;;;;;;;17.39;57.19;100484.83;1645157;87;21020;-70
2023/05/17 05:15:18;;;;;;;8.95;4.67;;;;;;;17.40;57.00;100485.13;1645093;87;21025;-70
2023/05/17 05:17:49;;;;;;;17.62;7.12;;;;;;;17.43;57.09;100478.56;1644993;87;21017;-71
2023/05/17 05:20:19;;;;;;;16.52;6.00;;;;;;;17.47;57.00;100483.63;1624571;87;21053;-70
2023/05/17 05:22:49;;;;;;;9.68;4.60;;;;;;;17.49;56.92;100475.38;1645231;87;21017;-73
2023/05/17 05:25:19;;;;;;;8.58;3.98;;;;;;;17.50;56.85;100481.22;1645230;87;20989;-69
2023/05/17 05:27:48;;;;;;;11.33;4.78;;;;;;;17.52;56.83;100485.13;1624453;87;21148;-71
2023/05/17 05:30:20;;;;;;;9.20;4.35;;;;;;;17.55;57.01;100484.64;1645105;86;21526;-70
2023/05/17 05:32:49;;;;;;;10.10;4.67;;;;;;;17.59;57.02;100490.04;1645184;87;21056;-71
2023/05/17 05:35:18;;;;;;;7.70;4.62;;;;;;;17.63;57.01;100494.02;1645263;87;21105;-70
2023/05/17 05:37:48;;;;;;;10.00;4.40;;;;;;;17.67;57.03;100494.70;1645064;87;21021;-72
2023/05/17 05:40:17;;;;;;;11.70;4.60;;;;;;;17.70;56.93;100484.52;1645230;87;21033;-70
2023/05/17 05:42:46;;;;;;;11.05;5.55;;;;;;;17.73;56.76;100489.58;1645026;86;21004;-70
2023/05/17 05:45:15;;;;;;;9.28;4.42;;;;;;;17.77;56.78;100502.95;1645021;87;21049;-70
2023/05/17 05:47:45;;;;;;;9.48;4.25;;;;;;;17.80;56.76;100500.53;1645071;87;21507;-70
2023/05/17 05:50:14;;;;;;;9.25;4.05;;;;;;;17.84;56.61;100504.51;1645097;86;21092;-71
2023/05/17 05:52:45;;;;;;;10.88;4.50;;;;;;;17.89;56.55;100510.16;1645363;87;21065;-71
2023/05/17 05:55:13;;;;;;;8.48;4.47;;;;;;;17.90;56.44;100507.69;1645024;87;21045;-70
2023/05/17 05:57:44;;;;;;;10.35;4.22;;;;;;;17.93;56.35;100504.43;1645332;86;21072;-70
2023/05/17 06:00:16;;;;;;;8.45;4.53;;;;;;;17.99;56.10;100509.55;1644991;87;21001;-70
2023/05/17 06:02:45;;;;;;;9.60;4.42;;;;;;;18.02;56.08;100511.83;1645341;87;21021;-72
2023/05/17 06:05:14;;;;;;;11.80;5.58;;;;;;;18.04;56.06;100509.11;1644968;86;21032;-70
2023/05/17 06:07:43;;;;;;;14.65;5.22;;;;;;;18.09;55.99;100508.92;1644941;86;21061;-71
2023/05/17 06:10:12;;;;;;;17.82;5.85;;;;;;;18.13;55.90;100509.58;1645008;87;21507;-70
2023/05/17 06:12:45;;;;;;;10.18;4.95;;;;;;;18.19;55.79;100514.69;1645052;87;21633;-72
2023/05/17 06:15:14;;;;;;;12.98;5.10;;;;;;;18.26;55.51;100507.94;1645103;87;21052;-72
2023/05/17 06:17:44;;;;;;;8.80;4.58;;;;;;;18.34;55.29;100508.10;1645358;86;21016;-71
2023/05/17 06:20:13;;;;;;;10.90;4.85;;;;;;;18.42;55.01;100516.03;1644883;87;21084;-72
2023/05/17 06:22:44;;;;;;;9.38;4.72;;;;;;;18.50;54.87;100517.58;1644748;87;21359;-70
2023/05/17 06:25:13;;;;;;;10.55;4.70;;;;;;;18.62;54.68;100526.73;1645274;86;21017;-71
2023/05/17 06:27:43;;;;;;;9.53;4.42;;;;;;;18.71;54.42;100525.23;1645071;86;21104;-72
2023/05/17 06:30:13;;;;;;;11.85;5.33;;;;;;;18.82;54.24;100526.27;1645227;87;21037;-70
2023/05/17 06:32:43;;;;;;;8.63;4.87;;;;;;;18.93;53.92;100524.86;1644986;86;21051;-73
2023/05/17 06:35:12;;;;;;;13.00;5.60;;;;;;;19.04;53.48;100538.37;1645038;87;21033;-70
2023/05/17 06:37:41;;;;;;;24.10;6.17;;;;;;;19.15;53.32;100532.46;1645073;86;21092;-70
2023/05/17 06:40:11;;;;;;;12.33;4.80;;;;;;;19.24;52.90;100527.63;1644953;87;21493;-69
2023/05/17 06:42:41;;;;;;;10.45;4.60;;;;;;;19.33;52.71;100527.50;1642292;87;21659;-69
2023/05/17 06:45:12;;;;;;;9.45;4.35;;;;;;;19.40;52.24;100529.27;1645018;87;21013;-71
2023/05/17 06:47:41;;;;;;;11.40;4.65;;;;;;;19.46;52.02;100525.48;1645079;86;20993;-72
2023/05/17 06:50:10;;;;;;;12.15;4.60;;;;;;;19.53;51.65;100525.66;1645379;87;21013;-72
2023/05/17 06:52:41;;;;;;;13.18;4.80;;;;;;;19.61;51.25;100525.78;1644775;86;21698;-70
2023/05/17 06:55:10;;;;;;;9.70;4.92;;;;;;;19.68;51.06;100528.39;1645109;87;21001;-69
2023/05/17 06:57:40;;;;;;;8.60;4.37;;;;;;;19.75;50.74;100528.51;1645015;86;20982;-71
2023/05/17 07:00:10;;;;;;;12.95;4.80;;;;;;;19.82;50.55;100529.72;1645425;87;21065;-71
2023/05/17 07:02:39;;;;;;;8.85;4.12;;;;;;;19.88;50.57;100530.92;1645135;87;21037;-70
2023/05/17 07:05:09;;;;;;;16.05;4.75;;;;;;;19.95;50.30;100535.75;1645391;87;21033;-71
2023/05/17 07:07:38;;;;;;;13.03;4.62;;;;;;;19.99;50.09;100522.17;1645150;86;21033;-71
2023/05/17 07:10:07;;;;;;;13.08;4.75;;;;;;;20.04;50.10;100521.41;1677707;85;21068;-72
2023/05/17 07:12:37;;;;;;;6.55;4.47;;;;;;;20.11;50.08;100524.29;1646774;87;21021;-69
2023/05/17 07:15:08;;;;;;;9.10;4.40;;;;;;;20.20;49.67;100522.77;1677496;85;21011;-71
2023/05/17 07:17:40;;;;;;;8.73;4.28;;;;;;;20.28;49.36;100526.20;1647081;87;21053;-70
2023/05/17 07:20:10;;;;;;;9.25;4.00;;;;;;;20.32;49.15;100525.42;1647416;86;21025;-72
2023/05/17 07:22:39;;;;;;;9.93;4.28;;;;;;;20.37;48.89;100526.04;1677143;85;21063;-70
2023/05/17 07:25:09;;;;;;;7.05;4.25;;;;;;;20.42;48.50;100525.59;1646971;87;21047;-70
2023/05/17 07:27:38;;;;;;;12.30;4.83;;;;;;;20.50;48.56;100523.73;1677575;85;21091;-70
2023/05/17 07:30:08;;;;;;;9.38;4.47;;;;;;;20.56;48.50;100520.46;1647203;87;20993;-72
2023/05/17 07:32:38;;;;;;;8.75;3.92;;;;;;;20.65;48.35;100527.80;1677553;85;21485;-70
2023/05/17 07:35:07;;;;;;;10.93;3.70;;;;;;;20.75;47.01;100525.13;1646963;87;21506;-71
2023/05/17 07:37:36;;;;;;;8.13;3.52;;;;;;;20.84;46.46;100523.03;1677320;85;21043;-72
2023/05/17 07:40:07;;;;;;;8.58;3.85;;;;;;;20.93;45.70;100531.76;1677570;85;21521;-71
2023/05/17 07:42:37;;;;;;;8.68;3.15;;;;;;;21.02;45.35;100527.39;1686580;84;21076;-69
2023/05/17 07:45:07;;;;;;;9.60;3.50;;;;;;;21.11;44.26;100530.54;1646936;87;21024;-70
2023/05/17 07:47:36;;;;;;;9.18;3.42;;;;;;;21.17;43.96;100521.96;1647091;86;21033;-72
2023/05/17 07:50:06;;;;;;;6.20;3.30;;;;;;;21.28;44.06;100522.08;1647057;87;21068;-69
2023/05/17 07:52:37;;;;;;;9.95;3.50;;;;;;;21.33;42.73;100526.30;1677788;85;21032;-69
2023/05/17 07:55:08;;;;;;;9.95;3.87;;;;;;;21.37;43.25;100526.91;1677595;85;21512;-69
2023/05/17 07:57:36;;;;;;;6.12;3.50;;;;;;;21.44;43.41;100522.50;1686644;84;21044;-71
2023/05/17 08:00:11;;;;;;;10.20;3.70;;;;;;;21.51;43.54;100526.77;1678147;84;21526;-68
2023/05/17 08:02:42;;;;;;;11.73;3.87;;;;;;;21.59;43.27;100529.62;1683846;84;21161;-72
2023/05/17 08:05:11;;;;;;;9.75;6.25;;;;;;;21.64;42.63;100533.84;1680333;84;21077;-76
2023/05/17 08:07:40;;;;;;;6.30;3.30;;;;;;;21.67;42.17;100531.06;1704806;83;21076;-74
2023/05/17 08:10:11;;;;;;;5.40;3.40;;;;;;;21.69;41.74;100523.27;1693291;83;21095;-74
2023/05/17 08:12:41;;;;;;;9.78;2.90;;;;;;;21.70;41.27;100531.92;1690536;84;21056;-69
2023/05/17 08:15:10;;;;;;;4.35;2.60;;;;;;;21.70;41.10;100540.30;1709623;83;21056;-71
2023/05/17 08:17:40;;;;;;;8.45;2.80;;;;;;;21.68;40.73;100534.98;1709381;84;21016;-76
2023/05/17 08:20:10;;;;;;;7.78;4.17;;;;;;;21.67;40.72;100539.44;1713758;83;21063;-71
2023/05/17 08:22:40;;;;;;;6.67;3.17;;;;;;;21.68;40.90;100539.72;1714574;84;21075;-70
2023/05/17 08:25:09;;;;;;;9.00;2.90;;;;;;;21.71;41.00;100541.42;1714415;84;21513;-72
2023/05/17 08:27:38;;;;;;;4.22;2.92;;;;;;;21.76;41.00;100537.27;1714587;83;21028;-71
2023/05/17 08:30:09;;;;;;;6.30;2.90;;;;;;;21.81;40.63;100537.30;1714816;83;21023;-71
2023/05/17 08:32:40;;;;;;;6.40;3.12;;;;;;;21.89;40.48;100541.53;1713954;83;21460;-71
2023/05/17 08:35:09;;;;;;;8.35;3.30;;;;;;;21.95;40.01;100541.02;1714638;83;21099;-70
2023/05/17 08:37:38;;;;;;;9.30;4.15;;;;;;;21.98;39.83;100540.48;1709554;84;21067;-70
2023/05/17 08:40:08;;;;;;;10.20;3.22;;;;;;;22.01;40.02;100544.97;1709693;84;21436;-69
2023/05/17 08:42:37;;;;;;;7.80;2.87;;;;;;;22.07;40.51;100548.10;1709863;83;21480;-68
2023/05/17 08:45:09;;;;;;;5.40;2.67;;;;;;;22.11;40.34;100542.85;1709774;84;21460;-70
2023/05/17 08:47:39;;;;;;;8.38;5.12;;;;;;;22.12;39.80;100544.53;1709748;84;21051;-71
2023/05/17 08:50:08;;;;;;;5.60;3.00;;;;;;;22.15;39.60;100538.41;1709581;84;21039;-70
2023/05/17 08:52:39;;;;;;;4.55;2.70;;;;;;;22.21;39.17;100546.25;1709889;84;21063;-70
2023/05/17 08:55:10;;;;;;;6.33;3.10;;;;;;;22.22;38.47;100540.39;1713416;83;21110;-71
2023/05/17 08:57:39;;;;;;;7.15;2.83;;;;;;;22.24;38.24;100545.71;1709694;84;21159;-67
2023/05/17 09:00:12;;;;;;;4.28;2.62;;;;;;;22.26;38.24;100542.93;1709686;84;21087;-71
2023/05/17 09:02:41;;;;;;;7.67;3.25;;;;;;;22.28;38.11;100544.05;1709709;84;21024;-71
2023/05/17 09:05:12;;;;;;;6.33;2.60;;;;;;;22.30;38.10;100545.46;1709740;84;21048;-71
2023/05/17 09:07:43;;;;;;;6.30;2.77;;;;;;;22.31;37.59;100539.33;1710424;83;21413;-70
2023/05/17 09:10:12;;;;;;;3.77;2.40;;;;;;;22.30;37.61;100541.27;1705802;83;21073;-71
2023/05/17 09:12:41;;;;;;;9.28;2.52;;;;;;;22.30;37.83;100535.69;1689358;85;21033;-71
2023/05/17 09:15:18;;;;;;;6.95;2.95;;;;;;;22.34;37.93;100542.41;1688842;85;21104;-70
2023/05/17 09:17:55;;;;;;;4.12;2.60;;;;;;;22.37;37.99;100538.23;1689186;85;21185;-70
2023/05/17 09:20:35;;;;;;;6.25;2.65;;;;;;;22.39;38.20;100540.20;1688857;85;21044;-71
2023/05/17 09:23:08;;;;;;;5.87;3.15;;;;;;;22.40;38.40;100542.72;1688830;85;21088;-70
2023/05/17 09:25:37;;;;;;;8.08;2.70;;;;;;;22.38;38.86;100543.55;1659950;85;21061;-70
2023/05/17 09:28:11;;;;;;;8.43;2.70;;;;;;;22.37;38.09;100544.66;1689154;85;21088;-71
2023/05/17 09:30:38;;;;;;;6.60;3.00;;;;;;;22.38;38.25;100540.75;1682365;82;21192;-73
2023/05/17 09:33:08;;;;;;;8.45;2.90;;;;;;;22.42;38.75;100542.45;1689032;85;21105;-71
2023/05/17 09:35:38;;;;;;;6.97;2.60;;;;;;;22.45;38.83;100545.53;1688861;85;21296;-72
2023/05/17 09:38:13;;;;;;;6.47;2.72;;;;;;;22.52;37.99;100542.48;1688926;85;21037;-71
2023/05/17 09:40:47;;;;;;;4.50;2.37;;;;;;;22.57;37.32;100544.45;1688825;85;21500;-69
2023/05/17 09:43:16;;;;;;;6.37;2.35;;;;;;;22.63;36.31;100546.16;1689091;85;21077;-71
2023/05/17 09:45:45;;;;;;;8.28;3.37;;;;;;;22.68;35.74;100543.38;1685008;85;21120;-70
2023/05/17 09:48:17;;;;;;;4.17;2.17;;;;;;;22.74;35.97;100545.08;1616136;85;21081;-70
2023/05/17 09:50:47;;;;;;;8.93;4.40;;;;;;;22.83;35.71;100546.28;1689001;85;21156;-67
2023/05/17 09:53:28;;;;;;;6.47;3.60;;;;;;;22.90;35.84;100542.66;1688903;85;21044;-62
2023/05/17 09:56:01;;;;;;;5.50;3.10;;;;;;;22.97;36.31;100540.44;1689094;85;21053;-63
2023/05/17 09:58:36;;;;;;;6.50;2.50;;;;;;;23.04;36.29;100543.81;1689181;85;21085;-74
2023/05/17 10:01:07;;;;;;;3.42;2.40;;;;;;;23.12;36.09;100542.98;1688878;85;21097;-72
2023/05/17 10:03:36;;;;;;;5.65;2.90;;;;;;;23.19;35.90;100537.41;1689000;85;21044;-73
2023/05/17 10:06:09;;;;;;;9.75;2.72;;;;;;;23.27;35.84;100537.41;1689036;85;21132;-71
2023/05/17 10:08:43;;;;;;;11.73;3.65;;;;;;;23.36;35.45;100530.14;1683376;85;21065;-71
2023/05/17 10:11:12;;;;;;;4.92;2.30;;;;;;;23.43;35.04;100527.09;1700262;84;21049;-71
2023/05/17 10:13:51;;;;;;;6.15;2.60;;;;;;;23.51;34.44;100523.17;1703712;84;21034;-71
2023/05/17 10:16:22;;;;;;;5.95;2.40;;;;;;;23.58;34.55;100529.36;1703783;84;21083;-69
2023/05/17 10:18:51;;;;;;;10.18;2.90;;;;;;;23.66;34.09;100530.19;1703912;84;21061;-70
2023/05/17 10:21:21;;;;;;;6.90;2.12;;;;;;;23.74;33.84;100531.58;1703643;84;22112;-70
2023/05/17 10:23:50;;;;;;;5.25;2.22;;;;;;;23.78;33.66;100525.70;1682122;84;21042;-69
2023/05/17 10:26:19;;;;;;;4.33;2.10;;;;;;;23.78;33.67;100527.66;1703752;84;21065;-70
2023/05/17 10:28:50;;;;;;;10.15;2.60;;;;;;;23.81;33.81;100524.29;1703781;84;21061;-72
2023/05/17 10:31:20;;;;;;;4.15;2.02;;;;;;;23.89;33.76;100523.72;1703706;84;21058;-70
2023/05/17 10:33:50;;;;;;;5.53;2.42;;;;;;;23.98;33.65;100524.81;1703741;84;21028;-69
2023/05/17 10:36:20;;;;;;;11.35;2.50;;;;;;;24.04;33.32;100522.28;1703575;83;21006;-70
2023/05/17 10:38:50;;;;;;;12.93;2.72;;;;;;;24.08;33.23;100522.02;1703644;84;21014;-69
2023/05/17 10:41:22;;;;;;;5.30;2.55;;;;;;;24.11;33.11;100525.65;1703985;84;21068;-65
2023/05/17 10:43:52;;;;;;;10.95;5.25;;;;;;;24.13;32.95;100525.37;1703716;84;21462;-61
2023/05/17 10:46:22;;;;;;;5.72;2.70;;;;;;;24.17;32.66;100520.31;1704942;84;21038;-70
2023/05/17 10:48:52;;;;;;;12.13;3.08;;;;;;;24.20;32.50;100517.50;1682147;84;21050;-75
2023/05/17 10:51:33;;;;;;;8.25;2.72;;;;;;;24.25;32.45;100515.52;1703623;84;21073;-71
2023/05/17 10:54:06;;;;;;;7.53;2.50;;;;;;;24.30;32.57;100503.49;1703888;84;21053;-69
2023/05/17 10:56:41;;;;;;;5.20;2.00;;;;;;;24.40;32.88;100509.61;1703793;84;21041;-72
2023/05/17 10:59:28;;;;;;;6.25;2.00;;;;;;;24.49;32.13;100512.09;1705201;83;21539;-70
2023/05/17 11:01:59;;;;;;;4.90;2.40;;;;;;;24.54;31.42;100510.11;1703972;83;21074;-71
2023/05/17 11:04:39;;;;;;;6.20;2.87;;;;;;;24.59;30.80;100509.23;1703797;84;21022;-71
2023/05/17 11:07:20;;;;;;;4.50;2.05;;;;;;;24.60;30.74;100508.95;1703605;84;21069;-69
2023/05/17 11:10:07;;;;;;;6.17;2.72;;;;;;;24.64;30.33;100504.45;1700504;84;21473;-69
2023/05/17 11:12:45;;;;;;;5.78;2.30;;;;;;;24.64;30.10;100495.20;1681975;85;21441;-70
2023/05/17 11:15:15;;;;;;;4.58;2.40;;;;;;;24.67;29.93;100496.02;1681665;85;21072;-69
2023/05/17 11:17:52;;;;;;;5.20;1.60;;;;;;;24.69;30.11;100496.58;1681746;85;21037;-69
2023/05/17 11:20:30;;;;;;;8.70;2.37;;;;;;;24.73;29.85;100492.09;1681719;85;21908;-69
2023/05/17 11:23:05;;;;;;;3.58;1.45;;;;;;;24.78;29.09;100495.43;1681497;85;21093;-72
2023/05/17 11:25:37;;;;;;;3.62;1.87;;;;;;;24.83;28.83;100498.20;1681918;85;21078;-71
2023/05/17 11:28:08;;;;;;;5.87;1.67;;;;;;;24.87;28.63;100502.09;1681804;85;21104;-69
2023/05/17 11:30:42;;;;;;;4.58;1.77;;;;;;;24.92;28.79;100500.66;1680764;83;21085;-70
2023/05/17 11:33:11;;;;;;;3.10;2.05;;;;;;;25.00;28.60;100498.67;1681571;85;21088;-70
2023/05/17 11:35:46;;;;;;;1.92;1.60;;;;;;;25.07;28.30;100499.19;1679867;85;21184;-69
2023/05/17 11:38:18;;;;;;;3.45;1.52;;;;;;;25.10;27.90;100496.36;1681756;85;21527;-69
2023/05/17 11:40:50;;;;;;;3.83;2.25;;;;;;;25.09;28.07;100498.89;1681629;85;21021;-72